Time;durP1;ratioP1;P1;durP2;ratioP2;P2;SDS_P1;SDS_P2;PMS_P1;PMS_P2;Temp;Humidity;BMP_temperature;BMP_pressure;BME280_temperature;BME280_humidity;BME280_pressure;Samples;Min_cycle;Max_cycle;Signal;HPM_P1;HPM_P2
2022/09/19 00:02:56;;;;;;;6.63;5.10;;;10.10;1.00;;;;;;6276421;28;20844;-54
2022/09/19 00:05:59;;;;;;;8.10;4.93;;;10.10;1.00;;;;;;6290680;28;20236;-54
2022/09/19 00:09:03;;;;;;;4.20;4.10;;;10.10;1.00;;;;;;6306801;28;20228;-54
2022/09/19 00:12:06;;;;;;;4.47;4.20;;;10.10;1.00;;;;;;6281579;28;20245;-55
2022/09/19 00:15:12;;;;;;;4.40;4.17;;;10.10;1.00;;;;;;6280768;28;20296;-54
2022/09/19 00:18:16;;;;;;;4.67;4.27;;;10.10;1.00;;;;;;6280105;28;20368;-54
2022/09/19 00:21:20;;;;;;;5.53;4.20;;;10.10;1.00;;;;;;6287834;28;20237;-54
2022/09/19 00:27:44;;;;;;;4.93;4.10;;;10.00;1.00;;;;;;6270670;28;20253;-53
2022/09/19 00:30:49;;;;;;;4.43;3.87;;;10.00;1.00;;;;;;6261871;28;20731;-54
2022/09/19 00:33:52;;;;;;;5.80;4.07;;;10.00;1.00;;;;;;6275400;28;20228;-54
2022/09/19 00:36:55;;;;;;;4.27;3.73;;;9.90;1.00;;;;;;6278757;28;20280;-55
2022/09/19 00:39:58;;;;;;;3.67;3.47;;;9.90;1.00;;;;;;6260649;28;20588;-54
2022/09/19 00:43:01;;;;;;;4.80;4.43;;;9.90;1.00;;;;;;6261865;28;20241;-54
2022/09/19 00:46:05;;;;;;;7.97;4.83;;;9.90;1.00;;;;;;6259993;28;20249;-56
2022/09/19 00:49:13;;;;;;;4.73;4.53;;;9.90;1.00;;;;;;6267858;28;20418;-53
2022/09/19 00:52:20;;;;;;;5.27;4.80;;;9.90;1.00;;;;;;6285470;28;20226;-54
2022/09/19 00:55:23;;;;;;;6.43;5.83;;;9.90;1.00;;;;;;6285895;28;20957;-54
2022/09/19 00:58:29;;;;;;;7.57;6.40;;;9.80;1.00;;;;;;6271205;28;20728;-54
2022/09/19 01:01:34;;;;;;;8.30;7.03;;;9.80;1.00;;;;;;6264494;28;20267;-55
2022/09/19 01:04:40;;;;;;;9.60;7.60;;;9.90;1.00;;;;;;6281536;28;20245;-54
2022/09/19 01:08:01;;;;;;;8.40;7.30;;;9.80;1.00;;;;;;6282983;28;20468;-55
2022/09/19 01:11:23;;;;;;;7.53;6.93;;;9.80;1.00;;;;;;6284509;28;20558;-54
2022/09/19 01:14:40;;;;;;;7.50;6.87;;;9.80;1.00;;;;;;6272375;28;20382;-54
2022/09/19 01:17:47;;;;;;;7.37;6.77;;;9.80;1.00;;;;;;6259991;28;20234;-53
2022/09/19 01:25:02;;;;;;;8.30;7.20;;;9.70;1.00;;;;;;6258442;28;20442;-53
2022/09/19 01:28:20;;;;;;;10.57;9.30;;;9.70;1.00;;;;;;6259083;28;20491;-54
2022/09/19 01:31:27;;;;;;;8.30;7.60;;;9.70;1.00;;;;;;6258532;28;20234;-54
2022/09/19 01:34:33;;;;;;;11.90;9.00;;;9.70;1.00;;;;;;6282568;28;20244;-54
2022/09/19 01:37:39;;;;;;;7.67;6.97;;;9.70;1.00;;;;;;6268768;28;20236;-55
2022/09/19 01:40:43;;;;;;;10.20;6.80;;;9.70;1.00;;;;;;6267796;28;20237;-54
2022/09/19 01:43:48;;;;;;;8.13;6.53;;;9.70;1.00;;;;;;6280675;28;20233;-54
2022/09/19 01:46:57;;;;;;;5.57;5.30;;;9.70;1.00;;;;;;6283351;28;20775;-54
2022/09/19 01:50:06;;;;;;;8.27;5.87;;;9.70;1.00;;;;;;6283773;28;20607;-55
2022/09/19 01:53:19;;;;;;;7.60;5.17;;;9.70;1.00;;;;;;6285031;28;20602;-53
2022/09/19 01:56:32;;;;;;;5.07;4.77;;;9.70;1.00;;;;;;6282086;28;20253;-54
2022/09/19 02:00:06;;;;;;;5.87;4.90;;;9.70;1.00;;;;;;6258558;28;20245;-55
2022/09/19 02:03:22;;;;;;;5.50;5.07;;;9.70;1.00;;;;;;6260495;28;20264;-52
2022/09/19 02:06:37;;;;;;;5.63;5.03;;;9.80;1.00;;;;;;6289576;28;20429;-54
2022/09/19 02:09:45;;;;;;;4.97;4.67;;;9.70;1.00;;;;;;6282825;28;20234;-54
2022/09/19 02:12:52;;;;;;;5.97;5.53;;;9.70;1.00;;;;;;6283559;28;20249;-54
2022/09/19 02:16:00;;;;;;;5.77;4.83;;;9.70;1.00;;;;;;6269088;28;20242;-54
2022/09/19 02:19:08;;;;;;;8.43;5.65;;;9.70;1.00;;;;;;6232497;28;1095124;-54
2022/09/19 02:22:15;;;;;;;5.40;4.97;;;9.70;1.00;;;;;;6282930;28;20606;-53
2022/09/19 02:25:22;;;;;;;6.57;5.33;;;9.70;1.00;;;;;;6260553;28;20249;-54
2022/09/19 02:28:31;;;;;;;6.37;5.47;;;9.80;1.00;;;;;;6259306;28;20824;-54
2022/09/19 02:31:37;;;;;;;5.90;5.60;;;9.80;1.00;;;;;;6254697;28;20241;-54
2022/09/19 02:34:41;;;;;;;5.67;5.17;;;9.80;1.00;;;;;;6277798;28;20240;-54
2022/09/19 02:37:47;;;;;;;5.17;4.83;;;9.80;1.00;;;;;;6282748;28;20245;-52
2022/09/19 02:40:57;;;;;;;6.13;5.50;;;9.80;1.00;;;;;;6283255;28;20272;-54
2022/09/19 02:44:05;;;;;;;7.03;5.23;;;9.80;1.00;;;;;;6289184;28;20393;-54
2022/09/19 02:47:15;;;;;;;8.43;5.33;;;9.80;1.00;;;;;;6282791;28;20468;-55
2022/09/19 02:50:23;;;;;;;5.87;5.63;;;9.80;1.00;;;;;;6285421;28;20587;-54
2022/09/19 02:53:29;;;;;;;5.90;5.27;;;9.90;1.00;;;;;;6264001;28;20238;-54
2022/09/19 02:56:35;;;;;;;8.20;5.60;;;9.80;1.00;;;;;;6261992;28;20230;-56
2022/09/19 02:59:42;;;;;;;6.40;5.90;;;9.80;1.00;;;;;;6259653;28;20660;-55
2022/09/19 03:02:54;;;;;;;6.97;6.10;;;9.80;1.00;;;;;;6274017;28;20732;-55
2022/09/19 03:06:00;;;;;;;5.70;5.40;;;9.90;1.00;;;;;;6283768;28;20249;-54
2022/09/19 03:09:06;;;;;;;7.70;6.30;;;9.80;1.00;;;;;;6280746;28;20237;-55
2022/09/19 03:12:18;;;;;;;19.93;6.47;;;9.90;1.00;;;;;;6283627;28;20248;-55
2022/09/19 03:15:25;;;;;;;5.77;5.47;;;9.80;1.00;;;;;;6282205;28;20656;-55
2022/09/19 03:18:31;;;;;;;6.50;5.90;;;9.80;1.00;;;;;;6281644;28;20239;-55
2022/09/19 03:21:36;;;;;;;6.77;6.27;;;9.80;1.00;;;;;;6271128;28;20728;-55
2022/09/19 03:24:39;;;;;;;7.57;6.03;;;9.80;1.00;;;;;;6281834;28;20655;-56
2022/09/19 03:27:43;;;;;;;7.57;6.13;;;9.90;1.00;;;;;;6278835;28;20233;-53
2022/09/19 03:30:46;;;;;;;7.00;6.60;;;9.90;1.00;;;;;;6274879;28;20249;-54
2022/09/19 03:33:51;;;;;;;6.87;6.27;;;9.90;1.00;;;;;;6259404;28;20249;-55
2022/09/19 03:36:54;;;;;;;6.93;6.30;;;9.90;1.00;;;;;;6280166;28;20373;-54
2022/09/19 03:39:56;;;;;;;8.33;6.80;;;9.90;1.00;;;;;;6266165;28;20257;-54
2022/09/19 03:42:59;;;;;;;7.03;6.40;;;9.90;1.00;;;;;;6277224;28;20523;-54
2022/09/19 03:46:02;;;;;;;9.77;6.83;;;9.90;1.00;;;;;;6281382;28;20643;-54
2022/09/19 03:49:07;;;;;;;6.93;6.40;;;10.00;1.00;;;;;;6275559;28;20542;-54
2022/09/19 03:52:10;;;;;;;7.63;7.10;;;10.00;1.00;;;;;;6272167;28;20506;-52
2022/09/19 03:55:12;;;;;;;7.13;6.43;;;10.00;1.00;;;;;;6280867;28;20230;-59
2022/09/19 03:58:17;;;;;;;7.10;6.50;;;10.00;1.00;;;;;;6280962;28;20314;-54
2022/09/19 04:01:21;;;;;;;6.90;6.50;;;10.00;1.00;;;;;;6278883;28;20441;-53
2022/09/19 04:04:25;;;;;;;7.67;7.07;;;10.10;1.00;;;;;;6284718;28;20309;-55
2022/09/19 04:07:28;;;;;;;8.53;7.63;;;10.10;1.00;;;;;;6282043;28;20745;-55
2022/09/19 04:10:31;;;;;;;8.03;7.27;;;10.10;1.00;;;;;;6279029;28;20244;-55
2022/09/19 04:13:35;;;;;;;8.70;7.80;;;10.10;1.00;;;;;;6286559;28;20383;-54
2022/09/19 04:16:38;;;;;;;10.07;9.13;;;10.10;1.00;;;;;;6280219;28;20245;-55
2022/09/19 04:19:43;;;;;;;11.60;9.90;;;10.10;1.00;;;;;;6279519;28;20415;-54
2022/09/19 04:22:46;;;;;;;11.20;10.13;;;10.10;1.00;;;;;;6289135;28;20603;-54
2022/09/19 04:25:49;;;;;;;10.60;9.63;;;10.10;1.00;;;;;;6280562;28;20237;-53
2022/09/19 04:28:52;;;;;;;13.07;10.20;;;10.20;1.00;;;;;;6286914;28;20240;-55
2022/09/19 04:31:55;;;;;;;11.93;10.63;;;10.10;1.00;;;;;;6287313;28;20260;-53
2022/09/19 04:35:00;;;;;;;12.20;11.17;;;10.20;1.00;;;;;;6277454;28;20225;-56
2022/09/19 04:38:03;;;;;;;10.67;9.67;;;10.10;1.00;;;;;;6277393;28;20233;-54
2022/09/19 04:41:07;;;;;;;11.00;9.90;;;10.20;1.00;;;;;;6273379;28;20640;-54
2022/09/19 04:44:11;;;;;;;12.13;11.03;;;10.20;1.00;;;;;;6286050;28;20249;-55
2022/09/19 04:47:14;;;;;;;12.53;11.13;;;10.20;1.00;;;;;;6282670;28;20237;-55
2022/09/19 04:50:18;;;;;;;13.37;11.67;;;10.20;1.00;;;;;;6283204;28;20820;-53
2022/09/19 04:53:23;;;;;;;12.87;11.93;;;10.30;1.00;;;;;;6276702;28;20234;-55
2022/09/19 04:56:27;;;;;;;13.93;12.53;;;10.30;1.00;;;;;;6287078;28;20240;-54
2022/09/19 04:59:30;;;;;;;14.60;13.17;;;10.30;1.00;;;;;;6284590;28;20229;-54
2022/09/19 05:02:34;;;;;;;15.53;14.03;;;10.30;1.00;;;;;;6287518;28;20706;-54
2022/09/19 05:05:44;;;;;;;14.70;13.40;;;10.30;1.00;;;;;;6288587;28;20456;-55
2022/09/19 05:08:46;;;;;;;16.97;14.00;;;10.30;1.00;;;;;;6285043;28;20573;-54
2022/09/19 05:11:50;;;;;;;14.17;12.87;;;10.30;1.00;;;;;;6297445;28;20256;-54
2022/09/19 05:14:53;;;;;;;15.07;13.63;;;10.30;1.00;;;;;;6288486;28;20241;-55
2022/09/19 05:17:56;;;;;;;14.87;13.37;;;10.40;1.00;;;;;;6284491;28;20242;-54
2022/09/19 05:21:04;;;;;;;14.23;12.80;;;10.40;1.00;;;;;;6304084;28;20237;-54
2022/09/19 05:24:07;;;;;;;13.70;12.63;;;10.40;1.00;;;;;;6293621;28;20289;-55
2022/09/19 05:27:11;;;;;;;13.03;11.83;;;10.50;1.00;;;;;;6289909;28;20633;-55
2022/09/19 05:30:14;;;;;;;15.87;14.23;;;10.50;1.00;;;;;;6289377;28;20737;-53
2022/09/19 05:33:20;;;;;;;12.90;11.77;;;10.50;1.00;;;;;;6286128;28;20234;-54
2022/09/19 05:36:27;;;;;;;13.53;12.37;;;10.50;1.00;;;;;;6282448;28;20618;-53
2022/09/19 05:39:30;;;;;;;12.70;11.60;;;10.60;1.00;;;;;;6282200;28;20711;-55
2022/09/19 05:42:34;;;;;;;18.73;12.47;;;10.60;1.00;;;;;;6289180;28;20234;-53
2022/09/19 05:45:37;;;;;;;15.03;12.93;;;10.60;1.00;;;;;;6281411;28;20241;-54
2022/09/19 05:48:40;;;;;;;13.43;12.13;;;10.60;1.00;;;;;;6286323;28;20701;-53
2022/09/19 05:51:44;;;;;;;12.90;11.60;;;10.60;1.00;;;;;;6285317;28;20241;-55
2022/09/19 05:54:46;;;;;;;13.90;10.20;;;10.60;1.00;;;;;;6286003;28;20479;-55
2022/09/19 05:57:53;;;;;;;9.60;9.00;;;10.60;1.00;;;;;;6290721;28;20966;-55
2022/09/19 06:00:56;;;;;;;8.63;7.97;;;10.70;1.00;;;;;;6289908;28;20241;-55
2022/09/19 06:04:01;;;;;;;9.77;7.30;;;10.70;1.00;;;;;;6292684;28;20237;-54
2022/09/19 06:07:06;;;;;;;7.50;6.80;;;10.80;1.00;;;;;;6290520;28;20255;-53
2022/09/19 06:10:09;;;;;;;7.07;6.50;;;10.80;1.00;;;;;;6283473;28;20261;-54
2022/09/19 06:13:13;;;;;;;9.07;7.20;;;10.80;1.00;;;;;;6294805;28;20244;-54
2022/09/19 06:16:17;;;;;;;7.37;6.63;;;10.80;1.00;;;;;;6287678;28;20745;-54
2022/09/19 06:19:21;;;;;;;7.30;6.60;;;10.90;1.00;;;;;;6285423;28;20237;-55
2022/09/19 06:22:25;;;;;;;7.80;7.10;;;11.00;1.00;;;;;;6292853;28;20261;-54
2022/09/19 06:25:28;;;;;;;7.40;6.70;;;11.00;1.00;;;;;;6290687;28;20233;-52
2022/09/19 06:28:31;;;;;;;8.73;8.07;;;11.10;1.00;;;;;;6288064;28;20244;-54
2022/09/19 06:31:35;;;;;;;9.00;8.30;;;11.20;1.00;;;;;;6284926;28;20230;-55
2022/09/19 06:34:38;;;;;;;9.70;8.90;;;11.20;1.00;;;;;;6278806;28;20256;-54
2022/09/19 06:38:02;;;;;;;11.43;10.47;;;11.20;1.00;;;;;;6284436;28;20245;-51
2022/09/19 06:41:07;;;;;;;11.53;10.27;;;11.30;1.00;;;;;;6288999;28;20400;-53
2022/09/19 06:44:10;;;;;;;10.27;9.37;;;11.30;1.00;;;;;;6290116;28;20730;-53
2022/09/19 06:47:13;;;;;;;10.03;9.10;;;11.30;1.00;;;;;;6286193;28;20237;-54
2022/09/19 06:50:16;;;;;;;10.20;9.20;;;11.30;1.00;;;;;;6287349;28;20705;-54
2022/09/19 06:53:20;;;;;;;9.87;9.07;;;11.30;1.00;;;;;;6287606;28;20228;-54
2022/09/19 06:56:23;;;;;;;9.33;8.53;;;11.40;1.00;;;;;;6289041;28;20221;-58
2022/09/19 06:59:27;;;;;;;6.73;6.40;;;11.50;1.00;;;;;;6292752;28;20392;-56
2022/09/19 07:02:30;;;;;;;6.90;6.23;;;11.50;1.00;;;;;;6291649;28;20249;-54
2022/09/19 07:05:35;;;;;;;6.33;5.90;;;11.50;1.00;;;;;;6291742;28;20239;-52
2022/09/19 07:08:39;;;;;;;5.50;5.00;;;11.60;1.00;;;;;;6284534;28;20243;-54
2022/09/19 07:11:43;;;;;;;5.67;5.27;;;11.70;1.00;;;;;;6296853;28;20243;-55
2022/09/19 07:14:46;;;;;;;5.20;4.83;;;11.70;1.00;;;;;;6292268;28;20272;-53
2022/09/19 07:17:49;;;;;;;6.83;6.37;;;11.80;1.00;;;;;;6288008;28;20241;-53
2022/09/19 07:20:52;;;;;;;7.13;6.47;;;11.90;1.00;;;;;;6291907;28;20362;-53
2022/09/19 07:23:57;;;;;;;8.43;7.57;;;12.00;1.00;;;;;;6294131;28;20392;-53
2022/09/19 07:27:00;;;;;;;7.27;6.33;;;12.10;1.00;;;;;;6275378;28;20496;-54
2022/09/19 07:30:04;;;;;;;7.33;6.57;;;12.20;1.00;;;;;;6294598;28;20238;-57
2022/09/19 07:33:10;;;;;;;6.93;6.40;;;12.20;1.00;;;;;;6292262;28;20243;-53
2022/09/19 07:36:13;;;;;;;8.03;6.70;;;12.30;1.00;;;;;;6283012;28;20250;-53
2022/09/19 07:39:17;;;;;;;6.60;6.20;;;12.30;1.00;;;;;;6287118;28;20229;-54
2022/09/19 07:42:25;;;;;;;7.03;6.43;;;12.30;1.00;;;;;;6277485;28;20468;-52
2022/09/19 07:45:28;;;;;;;6.77;6.27;;;12.40;1.00;;;;;;6283019;28;20233;-54
2022/09/19 07:48:37;;;;;;;7.27;6.87;;;12.50;1.00;;;;;;6287409;28;20241;-53
2022/09/19 07:51:39;;;;;;;6.40;6.10;;;12.50;1.00;;;;;;6290390;28;20275;-54
2022/09/19 07:54:44;;;;;;;8.30;6.03;;;12.60;1.00;;;;;;6293028;28;20383;-53
2022/09/19 07:57:55;;;;;;;5.90;5.60;;;12.70;1.00;;;;;;6283699;28;20909;-54
2022/09/19 08:01:00;;;;;;;6.03;5.60;;;12.70;1.00;;;;;;6272043;28;20710;-53
2022/09/19 08:04:03;;;;;;;6.30;4.90;;;12.70;1.00;;;;;;6282954;28;20234;-54
2022/09/19 08:07:07;;;;;;;5.23;4.93;;;12.80;1.00;;;;;;6280195;28;20240;-54
2022/09/19 08:10:11;;;;;;;5.30;4.90;;;12.90;1.00;;;;;;6280778;28;20240;-54
2022/09/19 08:13:16;;;;;;;4.60;4.30;;;13.00;1.00;;;;;;6277334;28;20688;-53
2022/09/19 08:16:19;;;;;;;4.60;4.30;;;13.10;1.00;;;;;;6286285;28;20260;-53
2022/09/19 08:19:22;;;;;;;4.03;3.90;;;13.30;1.00;;;;;;6282581;28;20226;-53
2022/09/19 08:22:25;;;;;;;3.87;3.73;;;13.40;1.00;;;;;;6273430;28;20581;-53
2022/09/19 08:25:32;;;;;;;4.00;3.60;;;13.50;1.00;;;;;;6284704;28;20295;-53
2022/09/19 08:28:35;;;;;;;4.70;3.33;;;13.70;1.00;;;;;;6286725;28;20241;-55
2022/09/19 08:31:38;;;;;;;3.40;3.30;;;13.70;1.00;;;;;;6281712;28;20767;-54
2022/09/19 08:34:41;;;;;;;3.30;3.20;;;13.80;1.00;;;;;;6265368;28;20407;-54
2022/09/19 08:37:44;;;;;;;2.63;2.50;;;14.00;1.00;;;;;;6267196;28;20230;-55
2022/09/19 08:41:06;;;;;;;3.03;2.20;;;14.00;1.00;;;;;;6282501;28;20369;-53
2022/09/19 08:44:15;;;;;;;4.33;2.80;;;14.30;1.00;;;;;;6281401;28;20495;-54
2022/09/19 08:47:23;;;;;;;3.00;2.80;;;14.50;1.00;;;;;;6283772;28;20229;-53
2022/09/19 08:50:30;;;;;;;2.87;2.67;;;14.50;1.00;;;;;;6284188;28;20234;-52
2022/09/19 08:53:37;;;;;;;2.93;2.70;;;14.60;1.00;;;;;;6270927;28;20507;-54
2022/09/19 08:56:42;;;;;;;2.50;2.50;;;14.70;1.00;;;;;;6281470;28;20441;-53
2022/09/19 08:59:46;;;;;;;3.07;2.87;;;14.70;1.00;;;;;;6292080;28;20233;-54
2022/09/19 09:02:56;;;;;;;3.67;2.40;;;14.80;1.00;;;;;;6288991;28;20764;-54
2022/09/19 09:06:25;;;;;;;2.47;2.30;;;14.80;1.00;;;;;;6285910;28;20233;-53
2022/09/19 09:09:41;;;;;;;3.00;2.80;;;14.70;1.00;;;;;;6283565;28;20264;-54
2022/09/19 09:12:52;;;;;;;4.03;2.73;;;14.70;1.00;;;;;;6285834;28;20246;-52
2022/09/19 09:16:05;;;;;;;2.60;2.40;;;14.80;1.00;;;;;;6287230;28;20238;-54
2022/09/19 09:19:28;;;;;;;2.67;2.47;;;14.90;1.00;;;;;;6287939;28;20607;-52
2022/09/19 09:22:34;;;;;;;3.30;2.30;;;14.90;1.00;;;;;;6291929;28;20240;-54
2022/09/19 09:25:40;;;;;;;1.93;1.93;;;15.10;1.00;;;;;;6260824;28;20233;-54
2022/09/19 09:28:51;;;;;;;2.33;2.20;;;15.30;1.00;;;;;;6288903;28;20635;-54
2022/09/19 09:32:00;;;;;;;2.63;2.10;;;15.30;1.00;;;;;;6279753;28;20233;-53
2022/09/19 09:35:07;;;;;;;2.13;2.03;;;15.50;1.00;;;;;;6284314;28;20776;-53
2022/09/19 09:38:22;;;;;;;2.10;1.93;;;15.80;1.00;;;;;;6282642;28;20781;-53
2022/09/19 09:41:48;;;;;;;2.17;1.97;;;16.00;1.00;;;;;;6286346;28;20714;-54
2022/09/19 09:45:00;;;;;;;2.40;2.30;;;16.00;1.00;;;;;;6279603;28;20238;-55
2022/09/19 09:48:14;;;;;;;1.90;1.80;;;16.10;1.00;;;;;;6283110;28;20247;-54
2022/09/19 09:51:28;;;;;;;2.30;2.17;;;16.30;1.00;;;;;;6282226;28;20329;-53
2022/09/19 09:58:13;;;;;;;2.27;2.07;;;16.40;1.00;;;;;;6285014;28;20667;-54
2022/09/19 10:04:53;;;;;;;3.40;2.30;;;16.10;1.00;;;;;;6289045;28;20729;-52
2022/09/19 10:08:07;;;;;;;2.67;2.10;;;15.70;1.00;;;;;;6282324;28;20245;-54
2022/09/19 10:11:15;;;;;;;1.80;1.70;;;15.30;1.00;;;;;;6278818;28;20521;-53
2022/09/19 10:14:39;;;;;;;1.90;1.90;;;14.70;1.00;;;;;;6284145;28;20636;-53
2022/09/19 10:17:48;;;;;;;1.60;1.50;;;14.30;1.00;;;;;;6280833;28;20237;-53
2022/09/19 10:20:54;;;;;;;1.80;1.80;;;14.00;1.00;;;;;;6287693;28;20248;-52
2022/09/19 10:23:56;;;;;;;1.60;1.60;;;13.70;1.00;;;;;;6282620;28;20244;-52
2022/09/19 10:27:00;;;;;;;1.70;1.70;;;13.40;1.00;;;;;;6287238;28;20492;-52
2022/09/19 10:30:14;;;;;;;1.80;1.80;;;13.20;1.00;;;;;;6285019;28;20241;-53
2022/09/19 10:33:28;;;;;;;1.77;1.77;;;12.90;1.00;;;;;;6287350;28;20610;-53
2022/09/19 10:36:33;;;;;;;2.20;2.10;;;12.70;1.00;;;;;;6282686;28;20405;-53
2022/09/19 10:39:44;;;;;;;2.13;2.10;;;12.40;1.00;;;;;;6285552;28;20248;-51
2022/09/19 10:42:48;;;;;;;1.80;1.80;;;12.30;1.00;;;;;;6282307;28;20807;-53
2022/09/19 10:45:51;;;;;;;2.23;2.13;;;12.10;1.00;;;;;;6284508;28;20241;-53
2022/09/19 10:48:57;;;;;;;1.90;1.90;;;11.90;1.00;;;;;;6283887;28;20237;-54
2022/09/19 10:52:01;;;;;;;1.93;1.93;;;11.90;1.00;;;;;;6288183;28;20241;-53
2022/09/19 10:55:09;;;;;;;1.93;1.93;;;11.80;1.00;;;;;;6290327;28;20233;-53
2022/09/19 10:58:17;;;;;;;2.03;2.03;;;11.70;1.00;;;;;;6271087;28;20240;-55
2022/09/19 11:01:22;;;;;;;1.60;1.60;;;11.70;1.00;;;;;;6285660;28;20240;-53
2022/09/19 11:04:27;;;;;;;1.80;1.80;;;11.70;1.00;;;;;;6279608;28;20240;-52
2022/09/19 11:07:33;;;;;;;1.90;1.80;;;11.60;1.00;;;;;;6285691;28;20464;-53
2022/09/19 11:10:39;;;;;;;2.00;2.00;;;11.60;1.00;;;;;;6280547;28;20236;-54
2022/09/19 11:13:44;;;;;;;1.70;1.70;;;11.70;1.00;;;;;;6289471;28;20247;-57
2022/09/19 11:17:03;;;;;;;2.10;2.00;;;11.70;1.00;;;;;;6284974;28;20241;-52
2022/09/19 11:20:31;;;;;;;2.17;2.00;;;11.90;1.00;;;;;;6284103;28;20224;-52
2022/09/19 11:23:59;;;;;;;2.60;2.50;;;12.00;1.00;;;;;;6285487;28;20225;-53
2022/09/19 11:27:29;;;;;;;2.10;2.10;;;12.30;1.00;;;;;;6258738;28;20319;-54
2022/09/19 11:30:38;;;;;;;2.30;2.10;;;12.70;1.00;;;;;;6282727;28;20245;-53
2022/09/19 11:33:53;;;;;;;2.20;2.20;;;13.00;1.00;;;;;;6280068;28;20610;-53
2022/09/19 11:37:30;;;;;;;2.37;2.27;;;13.20;1.00;;;;;;6282483;28;20385;-53
2022/09/19 11:40:46;;;;;;;2.40;2.30;;;13.60;1.00;;;;;;6289293;28;20241;-54
2022/09/19 11:44:01;;;;;;;2.60;2.40;;;14.10;1.00;;;;;;6287630;28;20279;-54
2022/09/19 11:47:22;;;;;;;2.47;2.27;;;14.50;1.00;;;;;;6287306;28;20238;-55
2022/09/19 11:50:45;;;;;;;3.20;2.60;;;14.70;1.00;;;;;;6281230;28;20719;-54
2022/09/19 11:54:08;;;;;;;2.50;2.40;;;14.80;1.00;;;;;;6286521;28;20233;-54
2022/09/19 11:57:21;;;;;;;2.80;2.23;;;15.00;1.00;;;;;;6280510;28;20678;-56
2022/09/19 12:00:26;;;;;;;2.10;2.00;;;15.30;1.00;;;;;;6257883;28;20226;-55
2022/09/19 12:03:56;;;;;;;1.90;1.90;;;15.80;1.00;;;;;;6282208;28;20232;-54
2022/09/19 12:07:28;;;;;;;1.90;1.80;;;16.20;1.00;;;;;;6289880;28;20240;-55
2022/09/19 12:10:35;;;;;;;2.20;2.03;;;16.70;1.00;;;;;;6285543;28;20737;-54
2022/09/19 12:13:44;;;;;;;2.40;2.27;;;17.10;1.00;;;;;;6291158;28;20240;-55
2022/09/19 12:16:52;;;;;;;2.70;2.23;;;16.30;1.00;;;;;;6291702;28;20795;-53
2022/09/19 12:19:59;;;;;;;1.73;1.73;;;15.50;1.00;;;;;;6283058;28;20335;-54
2022/09/19 12:26:30;;;;;;;1.97;1.87;;;14.10;1.00;;;;;;6290215;28;20232;-52
2022/09/19 12:29:39;;;;;;;1.73;1.73;;;13.60;1.00;;;;;;6283426;28;20237;-52
2022/09/19 12:32:49;;;;;;;1.90;1.90;;;13.40;1.00;;;;;;6287735;28;20411;-53
2022/09/19 12:35:55;;;;;;;2.30;2.00;;;13.20;1.00;;;;;;6285181;28;20707;-52
2022/09/19 12:39:03;;;;;;;2.03;1.93;;;13.00;1.00;;;;;;6284199;28;20284;-53
2022/09/19 12:42:15;;;;;;;2.10;2.10;;;12.90;1.00;;;;;;6282948;28;20673;-54
2022/09/19 12:45:24;;;;;;;2.40;2.30;;;12.80;1.00;;;;;;6285215;28;20256;-52
2022/09/19 12:48:36;;;;;;;1.97;1.97;;;12.80;1.00;;;;;;6291061;28;20549;-52
2022/09/19 12:51:47;;;;;;;2.33;2.13;;;12.70;1.00;;;;;;6285179;28;20637;-52
2022/09/19 12:54:58;;;;;;;2.63;2.53;;;12.70;1.00;;;;;;6298454;28;20264;-53
2022/09/19 12:58:16;;;;;;;2.70;2.50;;;12.60;1.00;;;;;;6291411;28;20234;-53
2022/09/19 13:01:24;;;;;;;3.23;3.10;;;12.60;1.00;;;;;;6286486;28;20297;-53
2022/09/19 13:04:35;;;;;;;3.37;3.37;;;12.60;1.00;;;;;;6288534;28;20325;-53
2022/09/19 13:07:43;;;;;;;2.73;2.73;;;12.50;1.00;;;;;;6288857;28;20698;-53
2022/09/19 13:10:50;;;;;;;3.63;3.30;;;12.50;1.00;;;;;;6287717;28;20253;-53
2022/09/19 13:13:59;;;;;;;2.80;2.70;;;12.50;1.00;;;;;;6289899;28;20900;-53
2022/09/19 13:23:58;;;;;;;2.40;2.40;;;12.60;1.00;;;;;;6288775;28;20301;-53
2022/09/19 13:27:01;;;;;;;2.03;2.00;;;12.70;1.00;;;;;;6288727;28;20636;-54
2022/09/19 13:30:26;;;;;;;2.23;2.13;;;12.70;1.00;;;;;;6288184;28;20256;-53
2022/09/19 13:33:39;;;;;;;2.40;2.30;;;12.80;1.00;;;;;;6290874;28;20229;-53
2022/09/19 13:36:43;;;;;;;2.40;2.30;;;12.70;1.00;;;;;;6280824;28;20230;-55
2022/09/19 13:39:51;;;;;;;2.00;2.00;;;12.70;1.00;;;;;;6288805;28;20244;-53
2022/09/19 13:43:02;;;;;;;2.17;2.07;;;12.70;1.00;;;;;;6281565;28;20250;-54
2022/09/19 13:46:12;;;;;;;2.40;2.40;;;12.70;1.00;;;;;;6284222;28;20248;-54
2022/09/19 13:49:21;;;;;;;2.50;2.50;;;12.70;1.00;;;;;;6282339;28;20229;-54
2022/09/19 13:52:31;;;;;;;2.30;2.20;;;12.60;1.00;;;;;;6286780;28;20706;-54
2022/09/19 13:55:41;;;;;;;2.50;2.40;;;12.60;1.00;;;;;;6286168;28;20492;-54
2022/09/19 13:58:44;;;;;;;2.60;2.40;;;12.60;1.00;;;;;;6283515;28;20245;-53
2022/09/19 14:01:58;;;;;;;2.53;2.40;;;12.60;1.00;;;;;;6276638;28;20393;-53
2022/09/19 14:05:10;;;;;;;2.27;2.27;;;12.50;1.00;;;;;;6285278;28;20240;-54
2022/09/19 14:08:30;;;;;;;2.83;2.50;;;12.50;1.00;;;;;;6293244;28;20229;-54
2022/09/19 14:11:54;;;;;;;2.70;2.50;;;12.40;1.00;;;;;;6284580;28;20546;-53
2022/09/19 14:14:57;;;;;;;2.33;2.33;;;12.40;1.00;;;;;;6285332;28;20423;-53
2022/09/19 14:18:32;;;;;;;2.50;2.50;;;12.40;1.00;;;;;;6283303;28;20229;-53
2022/09/19 14:21:57;;;;;;;2.60;2.40;;;12.40;1.00;;;;;;6287980;28;20483;-55
2022/09/19 14:25:05;;;;;;;3.00;2.80;;;12.30;1.00;;;;;;6283737;28;20225;-54
2022/09/19 14:28:38;;;;;;;2.40;2.40;;;12.30;1.00;;;;;;6284082;28;20229;-53
2022/09/19 14:31:53;;;;;;;2.53;2.53;;;12.30;1.00;;;;;;6283422;28;20237;-55
2022/09/19 14:35:30;;;;;;;2.90;2.80;;;12.30;1.00;;;;;;6277477;28;20238;-53
2022/09/19 14:39:06;;;;;;;2.60;2.60;;;12.40;1.00;;;;;;6283388;28;20246;-53
2022/09/19 14:42:27;;;;;;;2.90;2.80;;;12.50;1.00;;;;;;6258819;28;20239;-55
2022/09/19 14:45:47;;;;;;;3.30;3.20;;;12.60;1.00;;;;;;6267003;28;20229;-53
2022/09/19 14:48:59;;;;;;;3.60;3.27;;;12.60;1.00;;;;;;6251488;28;20706;-52
2022/09/19 14:52:08;;;;;;;3.10;3.00;;;12.60;1.00;;;;;;6279567;28;20411;-53
2022/09/19 14:55:16;;;;;;;4.10;3.43;;;12.60;1.00;;;;;;6285190;28;20633;-53
2022/09/19 14:58:24;;;;;;;3.10;3.00;;;12.60;1.00;;;;;;6284499;28;20639;-54
2022/09/19 15:01:30;;;;;;;3.37;3.03;;;12.60;1.00;;;;;;6285285;28;20393;-53
2022/09/19 15:04:34;;;;;;;2.90;2.70;;;12.60;1.00;;;;;;6285615;28;20239;-55
2022/09/19 15:07:39;;;;;;;2.70;2.60;;;12.50;1.00;;;;;;6277115;28;20431;-54
2022/09/19 15:10:42;;;;;;;3.07;2.90;;;12.60;1.00;;;;;;6285344;28;20244;-53
2022/09/19 15:13:47;;;;;;;2.60;2.50;;;12.60;1.00;;;;;;6279238;28;20237;-57
2022/09/19 15:17:09;;;;;;;2.60;2.60;;;12.70;1.00;;;;;;6284510;28;20241;-54
2022/09/19 15:20:16;;;;;;;2.60;2.53;;;12.70;1.00;;;;;;6277847;28;20232;-53
2022/09/19 15:23:22;;;;;;;2.70;2.60;;;12.80;1.00;;;;;;6289512;28;20232;-54
2022/09/19 15:26:28;;;;;;;2.90;2.70;;;12.90;1.00;;;;;;6289106;28;20233;-56
2022/09/19 15:29:37;;;;;;;3.40;2.43;;;12.80;1.00;;;;;;6288045;28;20238;-54
2022/09/19 15:32:42;;;;;;;2.60;2.50;;;12.90;1.00;;;;;;6290685;28;20740;-54
2022/09/19 15:35:47;;;;;;;2.67;2.50;;;12.90;1.00;;;;;;6285983;28;20237;-53
2022/09/19 15:38:54;;;;;;;2.93;2.73;;;12.90;1.00;;;;;;6282570;28;20237;-55
2022/09/19 15:41:57;;;;;;;2.40;2.30;;;12.90;1.00;;;;;;6279133;28;20244;-55
2022/09/19 15:45:00;;;;;;;2.53;2.33;;;12.90;1.00;;;;;;6255847;28;20610;-55
2022/09/19 15:48:10;;;;;;;2.30;2.30;;;12.90;1.00;;;;;;6277878;28;20229;-54
2022/09/19 15:51:28;;;;;;;3.90;3.70;;;12.80;1.00;;;;;;6292270;28;20771;-54
2022/09/19 15:54:34;;;;;;;3.20;3.13;;;12.80;1.00;;;;;;6281717;28;20268;-55
2022/09/19 15:57:51;;;;;;;2.70;2.60;;;12.80;1.00;;;;;;6281795;28;20267;-54
2022/09/19 16:00:55;;;;;;;2.50;2.40;;;12.80;1.00;;;;;;6286549;28;20244;-55
2022/09/19 16:04:01;;;;;;;3.33;2.53;;;12.80;1.00;;;;;;6283755;28;20484;-54
2022/09/19 16:10:32;;;;;;;3.07;2.83;;;12.70;1.00;;;;;;6289426;28;20233;-54
2022/09/19 16:14:04;;;;;;;3.00;2.80;;;12.70;1.00;;;;;;6282644;28;20324;-55
2022/09/19 16:17:14;;;;;;;2.40;2.30;;;12.60;1.00;;;;;;6282736;28;20226;-55
2022/09/19 16:20:37;;;;;;;2.87;2.77;;;12.60;1.00;;;;;;6282318;28;20234;-54
2022/09/19 16:23:44;;;;;;;2.63;2.53;;;12.50;1.00;;;;;;6292187;28;20240;-54
2022/09/19 16:26:52;;;;;;;2.43;2.33;;;12.50;1.00;;;;;;6283052;28;20619;-55
2022/09/19 16:29:56;;;;;;;2.57;2.47;;;12.50;1.00;;;;;;6291281;28;20229;-54
2022/09/19 16:32:59;;;;;;;2.80;2.60;;;12.40;1.00;;;;;;6284329;28;20241;-54
2022/09/19 16:36:07;;;;;;;2.50;2.40;;;12.40;1.00;;;;;;6288611;28;20237;-54
2022/09/19 16:39:20;;;;;;;2.57;2.47;;;12.40;1.00;;;;;;6295462;28;20228;-54
2022/09/19 16:42:30;;;;;;;2.50;2.50;;;12.40;1.00;;;;;;6275832;28;20251;-54
2022/09/19 16:45:38;;;;;;;3.30;2.50;;;12.30;1.00;;;;;;6286984;28;20241;-55
2022/09/19 16:48:43;;;;;;;2.33;2.33;;;12.30;1.00;;;;;;6265966;28;20509;-54
2022/09/19 16:51:49;;;;;;;5.03;2.47;;;12.20;1.00;;;;;;6248459;28;20245;-54
2022/09/19 16:54:55;;;;;;;3.13;2.80;;;12.20;1.00;;;;;;6290967;28;20608;-55
2022/09/19 16:58:00;;;;;;;3.23;3.13;;;12.10;1.00;;;;;;6290402;28;20832;-55
2022/09/19 17:01:03;;;;;;;2.50;2.40;;;12.10;1.00;;;;;;6292927;28;20384;-55
2022/09/19 17:04:08;;;;;;;2.80;2.60;;;12.00;1.00;;;;;;6283431;28;20241;-55